Archival Weather

Norman Y Mineta San Jose Intl

San Jose, California (KSJC)

Report from: Thursday, February 8, 2024 3:53 AM PST
Current time: Friday, June 14, 2024 4:11 AM PDT

Current weather – Weather history – Daily summaries
Weather forecast

Temperature5.6°C (42.1°F)
Wind chill4.6°C (40.2°F)
Dew point2.2°C (36.0°F)
Winds 3 kts (1.5 m/s, 3.5 mph) South-Southeast (150°)
Visibility10 mi. (16.1 km)
Clouds Sky clear
Altimeter29.93 in.Hg (1014 mB)
Precip last 3 hoursTrace
Precip last 24 hours0.55 in. (14 mm)
Relative humidity79 %
Density altitude-1,033 ft. (-315 m)
Sea-level pressure101.3 kPa (1013 mB, 29.93 in.Hg)
Max temp last 6 hours10.6°C (51.1°F)
Min temp last 6 hours5.6°C (42.1°F)
Remarks Fully automated report
Automated weather observing station with precipitation discriminator
Pressure rising more slowly
Flight conditions Visual Meteorological Conditions
Raw dataKSJC 081153Z AUTO 15003KT 10SM CLR 06/02 A2993 RMK AO2 SLP134 60000 70055 T00560022 10106 20056 51009
An error has occurred. This application may no longer respond until reloaded. Reload 🗙